createdAt,value
2019-04-06T00:00:43.106Z,23.43
2019-04-06T00:03:12.177Z,24.90
2019-04-06T00:05:41.863Z,24.70
2019-04-06T00:08:10.991Z,23.20
2019-04-06T00:10:40.059Z,24.63
2019-04-06T00:13:09.218Z,22.63
2019-04-06T00:15:38.633Z,22.77
2019-04-06T00:18:07.769Z,24.57
2019-04-06T00:20:36.945Z,26.20
2019-04-06T00:23:06.009Z,24.33
2019-04-06T00:25:43.863Z,27.13
2019-04-06T00:28:05.740Z,25.10
2019-04-06T00:30:42.699Z,27.10
2019-04-06T00:33:14.130Z,27.70
2019-04-06T00:35:43.329Z,29.77
2019-04-06T00:38:12.469Z,26.20
2019-04-06T00:40:41.531Z,27.20
2019-04-06T00:43:10.693Z,26.47
2019-04-06T00:45:39.740Z,28.83
2019-04-06T00:48:08.752Z,29.83
2019-04-06T00:50:37.768Z,27.23
2019-04-06T00:53:06.973Z,28.63
2019-04-06T00:55:36.239Z,33.43
2019-04-06T00:58:05.517Z,29.03
2019-04-06T01:00:34.759Z,26.03
2019-04-06T01:03:04.021Z,26.07
2019-04-06T01:05:33.074Z,28.70
2019-04-06T01:08:02.257Z,28.50
2019-04-06T01:10:31.346Z,32.37
2019-04-06T01:13:00.509Z,26.20
2019-04-06T01:15:29.646Z,32.53
2019-04-06T01:17:58.718Z,32.40
2019-04-06T01:20:27.909Z,28.93
2019-04-06T01:22:56.937Z,29.23
2019-04-06T01:25:25.997Z,29.17
2019-04-06T01:27:54.988Z,30.47
2019-04-06T01:30:24.120Z,29.03
2019-04-06T01:32:53.139Z,32.30
2019-04-06T01:35:22.241Z,27.47
2019-04-06T01:37:51.266Z,31.00
2019-04-06T01:40:20.367Z,31.07
2019-04-06T01:42:49.478Z,26.80
2019-04-06T01:45:18.610Z,32.97
2019-04-06T01:47:47.709Z,36.70
2019-04-06T01:50:16.876Z,30.60
2019-04-06T01:52:45.917Z,30.77
2019-04-06T01:55:15.084Z,37.03
2019-04-06T01:57:44.252Z,41.20
2019-04-06T02:00:18.092Z,38.73
2019-04-06T02:02:49.548Z,35.30
2019-04-06T02:05:18.643Z,37.60
2019-04-06T02:07:47.646Z,37.63
2019-04-06T02:10:17.030Z,41.43
2019-04-06T02:12:46.018Z,34.67
2019-04-06T02:15:16.258Z,35.50
2019-04-06T02:17:45.358Z,37.03
2019-04-06T02:20:14.375Z,37.73
2019-04-06T02:22:43.352Z,33.27
2019-04-06T02:25:12.315Z,39.33
2019-04-06T02:27:41.215Z,38.60
2019-04-06T02:30:32.798Z,38.70
2019-04-06T02:33:30.039Z,37.93
2019-04-06T02:36:18.209Z,40.43
2019-04-06T02:38:57.862Z,42.63
2019-04-06T02:41:55.317Z,36.27
2019-04-06T02:44:24.263Z,48.23
2019-04-06T02:46:53.264Z,42.30
2019-04-06T02:49:22.227Z,43.80
2019-04-06T02:51:51.580Z,45.93
2019-04-06T02:54:20.452Z,46.90
2019-04-06T02:56:49.353Z,39.60
2019-04-06T02:59:18.487Z,45.83
2019-04-06T03:01:47.527Z,44.70
2019-04-06T03:04:16.636Z,43.10
2019-04-06T03:06:45.700Z,41.27
2019-04-06T03:09:14.671Z,46.47
2019-04-06T03:11:43.959Z,47.23
2019-04-06T03:14:13.255Z,49.67
2019-04-06T03:16:42.271Z,44.27
2019-04-06T03:19:11.244Z,42.30
2019-04-06T03:21:40.241Z,47.07
2019-04-06T03:24:09.381Z,48.00
2019-04-06T03:26:38.281Z,45.63
2019-04-06T03:29:07.299Z,46.90
2019-04-06T03:31:37.216Z,46.70
2019-04-06T03:34:06.266Z,45.17
2019-04-06T03:36:35.279Z,48.73
2019-04-06T03:39:05.982Z,44.30
2019-04-06T03:41:35.243Z,45.43
2019-04-06T03:44:04.383Z,50.83
2019-04-06T03:46:33.360Z,44.70
2019-04-06T03:49:02.444Z,54.10
2019-04-06T03:51:31.471Z,48.63
2019-04-06T03:54:00.399Z,42.97
2019-04-06T03:56:29.277Z,43.90
2019-04-06T03:58:58.167Z,46.03
2019-04-06T04:01:27.029Z,50.63
2019-04-06T04:03:55.841Z,48.50
2019-04-06T04:06:25.014Z,52.70
2019-04-06T04:08:54.223Z,50.97
2019-04-06T04:11:23.130Z,52.87
2019-04-06T04:13:52.027Z,42.77
2019-04-06T04:16:20.936Z,50.67
2019-04-06T04:18:49.959Z,48.87
2019-04-06T04:21:18.978Z,43.73
2019-04-06T04:23:47.970Z,51.23
2019-04-06T04:26:16.822Z,51.67
2019-04-06T04:28:45.757Z,50.83
2019-04-06T04:31:15.058Z,46.97
2019-04-06T04:33:44.101Z,48.60
2019-04-06T04:36:12.934Z,51.50
2019-04-06T04:38:41.747Z,52.83
2019-04-06T04:41:10.723Z,48.83
2019-04-06T04:43:39.583Z,52.30
2019-04-06T04:46:08.631Z,50.47
2019-04-06T04:48:37.643Z,46.83
2019-04-06T04:51:06.527Z,49.30
2019-04-06T04:53:35.349Z,46.87
2019-04-06T04:56:04.342Z,49.67
2019-04-06T04:58:33.424Z,54.30
2019-04-06T05:01:02.600Z,45.83
2019-04-06T05:03:31.446Z,57.83
2019-04-06T05:06:00.330Z,45.83
2019-04-06T05:08:29.291Z,50.53
2019-04-06T05:10:58.237Z,56.13
2019-04-06T05:13:27.133Z,50.97
2019-04-06T05:16:21.019Z,53.00
2019-04-06T05:18:49.991Z,48.00
2019-04-06T05:21:19.062Z,58.60
2019-04-06T05:23:47.987Z,51.40
2019-04-06T05:26:16.888Z,57.30
2019-04-06T05:28:45.725Z,48.50
2019-04-06T05:31:14.703Z,48.40
2019-04-06T05:33:43.759Z,48.60
2019-04-06T05:36:12.988Z,50.63
2019-04-06T05:38:41.894Z,49.07
2019-04-06T05:41:10.707Z,48.30
2019-04-06T05:43:39.520Z,50.30
2019-04-06T05:46:08.411Z,54.30
2019-04-06T05:48:37.272Z,53.93
2019-04-06T05:51:06.182Z,47.10
2019-04-06T05:53:35.070Z,50.60
2019-04-06T05:56:03.970Z,51.83
2019-04-06T05:58:32.797Z,48.03
2019-04-06T06:01:03.731Z,51.07
2019-04-06T06:03:32.583Z,49.60
2019-04-06T06:06:01.712Z,49.70
2019-04-06T06:08:30.658Z,52.50
2019-04-06T06:10:59.654Z,50.00
2019-04-06T06:13:28.592Z,54.10
2019-04-06T06:15:57.496Z,67.63
2019-04-06T06:18:27.693Z,52.73
2019-04-06T06:20:56.793Z,59.23
2019-04-06T06:23:25.693Z,56.20
2019-04-06T06:25:54.565Z,56.03
2019-04-06T06:28:23.464Z,53.83
2019-04-06T06:30:52.368Z,54.80
2019-04-06T06:33:21.388Z,56.60
2019-04-06T06:35:50.357Z,49.63
2019-04-06T06:38:19.325Z,50.27
2019-04-06T06:40:48.215Z,60.50
2019-04-06T06:43:17.101Z,55.27
2019-04-06T06:45:46.120Z,57.87
2019-04-06T06:48:15.018Z,51.50
2019-04-06T06:51:03.396Z,54.57
2019-04-06T06:53:32.414Z,62.33
2019-04-06T06:56:01.510Z,60.00
2019-04-06T06:58:30.421Z,65.93
2019-04-06T07:00:59.490Z,55.20
2019-04-06T07:03:28.678Z,52.43
2019-04-06T07:05:57.790Z,47.60
2019-04-06T07:08:27.053Z,57.13
2019-04-06T07:10:56.081Z,58.67
2019-04-06T07:13:25.187Z,61.60
2019-04-06T07:15:54.309Z,64.60
2019-04-06T07:18:23.322Z,59.33
2019-04-06T07:20:52.434Z,56.37
2019-04-06T07:23:21.642Z,55.70
2019-04-06T07:25:57.695Z,57.00
2019-04-06T07:28:21.245Z,56.10
2019-04-06T07:30:50.289Z,55.20
2019-04-06T07:33:19.134Z,62.43
2019-04-06T07:35:48.226Z,55.03
2019-04-06T07:38:17.409Z,53.23
2019-04-06T07:40:46.505Z,64.00
2019-04-06T07:43:15.310Z,59.80
2019-04-06T07:45:44.343Z,60.83
2019-04-06T07:48:13.260Z,61.80
2019-04-06T07:50:42.290Z,67.47
2019-04-06T07:53:11.165Z,69.67
2019-04-06T07:55:40.002Z,66.53
2019-04-06T07:58:08.878Z,64.30
2019-04-06T08:00:37.779Z,64.90
2019-04-06T08:03:06.708Z,71.37
2019-04-06T08:05:35.712Z,68.60
2019-04-06T08:08:04.667Z,66.40
2019-04-06T08:10:33.709Z,83.50
2019-04-06T08:13:03.030Z,72.93
2019-04-06T08:15:32.074Z,69.03
2019-04-06T08:18:00.996Z,76.60
2019-04-06T08:20:29.849Z,82.07
2019-04-06T08:22:58.895Z,78.53
2019-04-06T08:25:28.211Z,71.00
2019-04-06T08:27:57.208Z,83.70
2019-04-06T08:30:26.279Z,83.37
2019-04-06T08:32:55.297Z,83.00
2019-04-06T08:35:26.339Z,86.17
2019-04-06T08:37:55.013Z,80.70
2019-04-06T08:40:23.978Z,75.30
2019-04-06T08:42:52.809Z,75.83
2019-04-06T08:45:21.642Z,82.50
2019-04-06T08:47:50.461Z,83.77
2019-04-06T08:50:19.457Z,85.43
2019-04-06T08:52:48.276Z,80.03
2019-04-06T08:55:17.249Z,73.53
2019-04-06T08:57:46.074Z,79.80
2019-04-06T09:00:15.440Z,83.50
2019-04-06T09:02:44.261Z,102.60
2019-04-06T09:05:13.921Z,80.33
2019-04-06T09:07:42.765Z,95.90
2019-04-06T09:10:11.723Z,83.43
2019-04-06T09:12:40.531Z,77.33
2019-04-06T09:15:10.051Z,83.83
2019-04-06T09:17:39.224Z,81.93
2019-04-06T09:20:09.767Z,80.90
2019-04-06T09:22:38.748Z,86.67
2019-04-06T09:25:07.883Z,92.93
2019-04-06T09:27:36.820Z,85.53
2019-04-06T09:30:06.324Z,83.83
2019-04-06T09:32:35.130Z,87.20
2019-04-06T09:35:04.529Z,88.50
2019-04-06T09:37:33.355Z,87.97
2019-04-06T09:40:02.485Z,91.23
2019-04-06T09:42:31.401Z,80.97
2019-04-06T09:45:22.392Z,96.53
2019-04-06T09:48:02.393Z,90.00
2019-04-06T09:50:50.655Z,78.83
2019-04-06T09:53:47.950Z,78.20
2019-04-06T09:56:32.557Z,81.03
2019-04-06T09:59:20.988Z,92.63
2019-04-06T10:02:05.282Z,69.80
2019-04-06T10:04:53.629Z,81.20
2019-04-06T10:07:44.938Z,87.33
2019-04-06T10:10:34.134Z,80.37
2019-04-06T10:13:14.657Z,82.10
2019-04-06T10:16:08.935Z,74.70
2019-04-06T10:19:09.414Z,82.20
2019-04-06T10:21:50.585Z,84.40
2019-04-06T10:24:37.682Z,77.20
2019-04-06T10:27:28.318Z,73.60
2019-04-06T10:30:16.644Z,77.83
2019-04-06T10:32:57.874Z,82.53
2019-04-06T10:35:38.705Z,66.87
2019-04-06T10:38:32.717Z,75.07
2019-04-06T10:41:08.408Z,66.53
2019-04-06T10:43:55.291Z,72.83
2019-04-06T10:46:30.415Z,72.57
2019-04-06T10:49:05.669Z,75.60
2019-04-06T10:51:41.369Z,73.57
2019-04-06T10:54:35.174Z,72.30
2019-04-06T10:57:29.114Z,78.70
2019-04-06T11:00:19.949Z,69.20
2019-04-06T11:02:54.731Z,65.47
2019-04-06T11:05:42.382Z,72.47
2019-04-06T11:08:21.833Z,79.73
2019-04-06T11:11:03.325Z,74.57
2019-04-06T11:14:00.689Z,74.33
2019-04-06T11:16:57.813Z,65.27
2019-04-06T11:19:45.541Z,72.80
2019-04-06T11:22:39.354Z,73.00
2019-04-06T11:25:33.538Z,67.23
2019-04-06T11:28:11.213Z,55.40
2019-04-06T11:31:06.694Z,60.93
2019-04-06T11:33:54.617Z,54.30
2019-04-06T11:36:54.561Z,56.40
2019-04-06T11:39:36.237Z,58.57
2019-04-06T11:42:20.287Z,55.57
2019-04-06T11:45:02.373Z,58.20
2019-04-06T11:47:41.554Z,60.00
2019-04-06T11:50:28.842Z,56.67
2019-04-06T11:53:26.105Z,53.27
2019-04-06T11:56:14.243Z,52.50
2019-04-06T11:58:58.489Z,55.77
2019-04-06T12:01:52.683Z,53.60
2019-04-06T12:04:37.412Z,56.57
2019-04-06T12:07:31.260Z,54.57
2019-04-06T12:10:19.509Z,54.07
2019-04-06T12:13:10.549Z,60.90
2019-04-06T12:16:13.938Z,60.80
2019-04-06T12:18:48.996Z,54.80
2019-04-06T12:21:26.469Z,55.03
2019-04-06T12:24:23.424Z,52.33
2019-04-06T12:27:26.842Z,55.07
2019-04-06T12:30:02.299Z,59.13
2019-04-06T12:32:46.427Z,61.00
2019-04-06T12:35:38.554Z,50.40
2019-04-06T12:38:32.664Z,54.73
2019-04-06T12:41:19.173Z,57.63
2019-04-06T12:44:07.097Z,59.57
2019-04-06T12:46:47.453Z,56.07
2019-04-06T12:49:44.879Z,54.30
2019-04-06T12:52:45.046Z,56.97
2019-04-06T12:55:42.293Z,60.00
2019-04-06T12:58:36.149Z,53.60
2019-04-06T13:01:35.352Z,56.87
2019-04-06T13:04:13.061Z,55.40
2019-04-06T13:07:07.330Z,52.70
2019-04-06T13:09:53.938Z,51.60
2019-04-06T13:12:36.463Z,51.00
2019-04-06T13:15:32.182Z,54.53
2019-04-06T13:18:07.653Z,53.03
2019-04-06T13:21:01.777Z,47.43
2019-04-06T13:23:45.119Z,49.53
2019-04-06T13:26:32.394Z,48.63
2019-04-06T13:29:20.405Z,44.70
2019-04-06T13:32:02.012Z,53.23
2019-04-06T13:34:50.067Z,46.50
2019-04-06T13:37:56.582Z,50.60
2019-04-06T13:40:44.720Z,52.57
2019-04-06T13:43:28.971Z,48.17
2019-04-06T13:46:15.949Z,49.13
2019-04-06T13:49:05.629Z,47.37
2019-04-06T13:51:54.095Z,47.50
2019-04-06T13:54:36.479Z,47.30
2019-04-06T13:57:23.778Z,47.03
2019-04-06T14:00:11.783Z,50.00
2019-04-06T14:02:58.508Z,49.73
2019-04-06T14:05:34.931Z,46.10
2019-04-06T14:08:15.747Z,48.30
2019-04-06T14:11:16.308Z,44.83
2019-04-06T14:14:01.013Z,48.53
2019-04-06T14:16:47.700Z,46.87
2019-04-06T14:19:32.479Z,42.80
2019-04-06T14:22:13.304Z,43.30
2019-04-06T14:24:51.791Z,38.87
2019-04-06T14:27:38.595Z,43.23
2019-04-06T14:30:16.187Z,42.50
2019-04-06T14:33:03.120Z,42.80
2019-04-06T14:36:01.953Z,42.50
2019-04-06T14:38:49.111Z,42.43
2019-04-06T14:41:26.707Z,43.30
2019-04-06T14:44:38.727Z,44.43
2019-04-06T14:47:19.588Z,44.53
2019-04-06T14:50:19.937Z,41.83
2019-04-06T14:53:08.106Z,44.70
2019-04-06T14:56:01.463Z,43.13
2019-04-06T14:58:49.367Z,43.57
2019-04-06T15:01:45.532Z,40.57
2019-04-06T15:04:18.319Z,38.93
2019-04-06T15:07:24.895Z,47.70
2019-04-06T15:10:15.187Z,40.47
2019-04-06T15:12:50.594Z,41.97
2019-04-06T15:15:50.819Z,43.77
2019-04-06T15:18:47.837Z,42.00
2019-04-06T15:21:30.366Z,42.33
2019-04-06T15:24:06.289Z,44.80
2019-04-06T15:27:03.782Z,44.20
2019-04-06T15:29:41.285Z,42.23
2019-04-06T15:32:32.210Z,44.63
2019-04-06T15:35:16.906Z,43.00
2019-04-06T15:38:13.593Z,40.60
2019-04-06T15:41:07.540Z,43.40
2019-04-06T15:43:55.102Z,46.50
2019-04-06T15:46:37.624Z,47.77
2019-04-06T15:49:25.894Z,43.50
2019-04-06T15:52:16.199Z,48.33
2019-04-06T15:55:01.311Z,48.17
2019-04-06T15:57:46.688Z,51.87
2019-04-06T16:00:21.998Z,45.50
2019-04-06T16:03:08.576Z,47.83
2019-04-06T16:05:57.278Z,44.70
2019-04-06T16:08:48.328Z,48.17
2019-04-06T16:11:35.187Z,46.47
2019-04-06T16:14:26.465Z,50.07
2019-04-06T16:17:07.686Z,47.17
2019-04-06T16:19:45.304Z,51.23
2019-04-06T16:22:39.399Z,51.73
2019-04-06T16:25:18.317Z,47.60
2019-04-06T16:28:09.154Z,48.80
2019-04-06T16:30:51.889Z,47.43
2019-04-06T16:33:49.386Z,47.57
2019-04-06T16:36:25.397Z,49.50
2019-04-06T16:39:08.369Z,45.60
2019-04-06T16:41:56.643Z,46.63
2019-04-06T16:44:54.075Z,52.83
2019-04-06T16:47:39.958Z,48.70
2019-04-06T16:50:28.693Z,48.60
2019-04-06T16:53:15.779Z,47.60
2019-04-06T16:56:04.806Z,55.37
2019-04-06T16:58:42.313Z,52.80
2019-04-06T17:01:39.847Z,50.20
2019-04-06T17:04:14.971Z,51.97
2019-04-06T17:07:06.223Z,59.00
2019-04-06T17:09:41.437Z,53.80
2019-04-06T17:12:28.390Z,55.80
2019-04-06T17:15:26.545Z,57.97
2019-04-06T17:18:18.815Z,55.77
2019-04-06T17:21:22.177Z,60.63
2019-04-06T17:24:09.359Z,59.93
2019-04-06T17:27:03.659Z,58.33
2019-04-06T17:29:54.477Z,65.63
2019-04-06T17:32:35.984Z,74.93
2019-04-06T17:35:16.336Z,67.93
2019-04-06T17:38:03.340Z,65.73
2019-04-06T17:40:49.741Z,71.50
2019-04-06T17:43:36.449Z,79.37
2019-04-06T17:46:27.792Z,78.93
2019-04-06T17:49:14.602Z,77.07
2019-04-06T17:51:49.662Z,71.33
2019-04-06T17:54:36.715Z,85.00
2019-04-06T17:57:36.961Z,75.93
2019-04-06T18:00:50.486Z,71.93
2019-04-06T18:03:37.468Z,79.30
2019-04-06T18:06:24.434Z,82.10
2019-04-06T18:09:06.433Z,73.53
2019-04-06T18:12:00.823Z,78.85
2019-04-06T18:14:30.305Z,89.87
2019-04-06T18:16:59.544Z,90.47
2019-04-06T18:19:28.382Z,78.23
2019-04-06T18:21:57.315Z,79.77
2019-04-06T18:24:26.255Z,83.53
2019-04-06T18:26:55.145Z,78.57
2019-04-06T18:29:24.243Z,76.90
2019-04-06T18:32:25.635Z,74.03
2019-04-06T18:34:54.961Z,75.50
2019-04-06T18:37:42.934Z,78.30
2019-04-06T18:40:21.855Z,87.83
2019-04-06T18:42:50.790Z,84.83
2019-04-06T18:45:19.741Z,75.57
2019-04-06T18:47:48.645Z,79.20
2019-04-06T18:50:18.413Z,76.80
2019-04-06T18:52:47.582Z,73.80
2019-04-06T18:55:16.781Z,81.77
2019-04-06T18:57:45.774Z,79.13
2019-04-06T19:00:16.297Z,78.73
2019-04-06T19:02:45.147Z,85.57
2019-04-06T19:05:15.802Z,73.73
2019-04-06T19:07:44.722Z,79.47
2019-04-06T19:10:13.679Z,78.63
2019-04-06T19:12:42.818Z,72.13
2019-04-06T19:15:11.809Z,81.30
2019-04-06T19:17:40.843Z,74.17
2019-04-06T19:20:11.070Z,80.70
2019-04-06T19:22:40.390Z,68.97
2019-04-06T19:25:10.398Z,74.73
2019-04-06T19:27:39.747Z,70.27
2019-04-06T19:30:10.110Z,73.33
2019-04-06T19:32:39.056Z,77.80
2019-04-06T19:35:08.903Z,71.03
2019-04-06T19:37:38.528Z,70.43
2019-04-06T19:40:08.535Z,71.70
2019-04-06T19:42:37.539Z,63.53
2019-04-06T19:45:07.707Z,67.30
2019-04-06T19:47:37.024Z,70.17
2019-04-06T19:50:07.698Z,73.33
2019-04-06T19:52:36.594Z,70.10
2019-04-06T19:55:07.278Z,65.63
2019-04-06T19:57:36.302Z,68.17
2019-04-06T20:00:06.772Z,62.47
2019-04-06T20:02:35.845Z,70.70
2019-04-06T20:05:05.750Z,78.23
2019-04-06T20:07:34.741Z,69.50
2019-04-06T20:10:04.120Z,74.87
2019-04-06T20:12:32.957Z,68.20
2019-04-06T20:15:01.878Z,74.30
2019-04-06T20:17:30.743Z,82.53
2019-04-06T20:20:00.105Z,85.30
2019-04-06T20:22:29.555Z,73.23
2019-04-06T20:24:58.909Z,70.63
2019-04-06T20:27:28.930Z,81.67
2019-04-06T20:29:58.006Z,67.60
2019-04-06T20:32:26.841Z,73.83
2019-04-06T20:34:55.679Z,81.70
2019-04-06T20:37:25.198Z,84.43
2019-04-06T20:39:54.314Z,66.60
2019-04-06T20:42:23.664Z,76.00
2019-04-06T20:44:52.721Z,66.73
2019-04-06T20:47:21.654Z,72.97
2019-04-06T20:49:50.739Z,69.37
2019-04-06T20:52:19.901Z,74.90
2019-04-06T20:54:49.038Z,74.30
2019-04-06T20:57:19.959Z,68.77
2019-04-06T20:59:48.629Z,74.30
2019-04-06T21:02:18.143Z,83.20
2019-04-06T21:04:47.290Z,72.67
2019-04-06T21:07:16.907Z,65.40
2019-04-06T21:09:46.079Z,71.20
2019-04-06T21:12:15.122Z,71.67
2019-04-06T21:14:44.111Z,88.33
2019-04-06T21:17:13.047Z,70.73
2019-04-06T21:19:41.910Z,68.47
2019-04-06T21:22:10.824Z,78.70
2019-04-06T21:24:39.680Z,81.37
2019-04-06T21:27:08.578Z,87.93
2019-04-06T21:29:38.120Z,76.93
2019-04-06T21:32:07.494Z,82.90
2019-04-06T21:34:36.343Z,82.97
2019-04-06T21:37:05.274Z,73.03
2019-04-06T21:39:34.193Z,87.17
2019-04-06T21:42:03.380Z,83.73
2019-04-06T21:44:32.495Z,88.50
2019-04-06T21:47:01.398Z,80.57
2019-04-06T21:49:30.230Z,76.97
2019-04-06T21:51:59.037Z,74.93
2019-04-06T21:54:28.495Z,82.60
2019-04-06T21:56:58.367Z,91.20
2019-04-06T21:59:27.534Z,88.93
2019-04-06T22:01:56.942Z,82.10
2019-04-06T22:04:27.340Z,76.10
2019-04-06T22:06:57.283Z,77.60
2019-04-06T22:09:27.040Z,83.80
2019-04-06T22:11:56.405Z,83.30
2019-04-06T22:14:25.297Z,86.20
2019-04-06T22:16:54.210Z,80.20
2019-04-06T22:19:23.466Z,85.43
2019-04-06T22:21:52.381Z,79.37
2019-04-06T22:24:21.376Z,84.40
2019-04-06T22:26:50.685Z,93.67
2019-04-06T22:29:19.583Z,86.10
2019-04-06T22:31:48.426Z,89.77
2019-04-06T22:34:17.401Z,87.70
2019-04-06T22:36:46.701Z,88.97
2019-04-06T22:39:15.818Z,90.57
2019-04-06T22:41:44.654Z,86.47
2019-04-06T22:44:13.505Z,82.90
2019-04-06T22:46:42.893Z,93.43
2019-04-06T22:49:12.316Z,85.53
2019-04-06T22:51:41.570Z,90.70
2019-04-06T22:54:10.608Z,90.23
2019-04-06T22:56:39.699Z,91.93
2019-04-06T22:59:08.717Z,91.90
2019-04-06T23:01:40.040Z,98.20
2019-04-06T23:04:32.358Z,87.03
2019-04-06T23:07:05.680Z,90.50
2019-04-06T23:09:34.863Z,91.70
2019-04-06T23:12:03.817Z,96.17
2019-04-06T23:14:32.911Z,100.00
2019-04-06T23:17:02.186Z,92.63
2019-04-06T23:19:31.328Z,92.67
2019-04-06T23:22:00.141Z,93.37
2019-04-06T23:24:29.060Z,93.13
2019-04-06T23:26:58.139Z,90.60
2019-04-06T23:29:27.214Z,98.60
2019-04-06T23:31:56.040Z,89.87
2019-04-06T23:34:24.972Z,95.13
2019-04-06T23:36:53.950Z,92.70
2019-04-06T23:39:22.985Z,85.67
2019-04-06T23:41:51.882Z,93.23
2019-04-06T23:44:21.160Z,90.83
2019-04-06T23:46:50.213Z,96.63
2019-04-06T23:49:19.138Z,95.50
2019-04-06T23:51:48.186Z,90.90
2019-04-06T23:54:17.079Z,90.50
2019-04-06T23:56:46.247Z,97.13
2019-04-06T23:59:15.554Z,91.70
